Flight Track Log - Related Links

Times and Time Zones

All times are in EDT time to prevent confusion due to time zone crossing. See the RPA3161 flight status page for this flight to view local times or setup timezone preferences in your user account.

Time Position Orientation Groundspeed Altitude Reporting Facility
EDT Latitude Longitude Course Direction KTS MPH feet Rate Location/Type
Sat 12:37:00 PM 44.1877 -73.2546 195° South  Level FlightAware Approximate
Sat 12:37:56 PM 44.4494 -73.3444 198° South 270 311 8,100  Level Boston Center
Sat 12:38:00 PM 44.0942 -73.2897 195° South  Level FlightAware Approximate
Sat 12:38:56 PM 44.3722 -73.3753 196° South 270 311 11,100  Level Boston Center
Sat 12:39:00 PM 44.0002 -73.3222 194° South  Level FlightAware Approximate
Sat 12:39:56 PM 44.2928 -73.3942 190° South 307 353 13,700  Level Boston Center
Sat 12:40:00 PM 43.9061 -73.3540 195° South  Level FlightAware Approximate
Sat 12:40:56 PM 44.1989 -73.4217 192° South 342 394 16,400  Level Boston Center
Sat 12:41:00 PM 43.8126 -73.3891 195° South  Level FlightAware Approximate
Sat 12:41:56 PM 44.0986 -73.4489 191° South 360 414 18,400  Level Boston Center
Sat 12:42:00 PM 43.7191 -73.4242 195° South  Level FlightAware Approximate
Sat 12:42:56 PM 43.9942 -73.4761 191° South 377 434 20,700  Level Boston Center
Sat 12:43:00 PM 43.6260 -73.4610 198° South  Level FlightAware Approximate
Sat 12:43:56 PM 43.8833 -73.5058 191° South 393 452 22,700  Level Boston Center
Sat 12:44:56 PM 43.7706 -73.5356 191° South 411 473 24,700 1,950 Climbing Boston Center
Sat 12:45:56 PM 43.6411 -73.5706 191° South 428 493 26,600 1,700 Climbing Boston Center
Sat 12:46:56 PM 43.5200 -73.5997 190° South 433 498 28,100 1,450 Climbing Boston Center
Sat 12:47:56 PM 43.3967 -73.6344 192° South 443 510 29,500 1,250 Climbing Boston Center
Sat 12:48:56 PM 43.2711 -73.6661 190° South 454 522 30,600 1,150 Climbing Boston Center
Sat 12:49:56 PM 43.1436 -73.7006 191° South 464 534 31,800 700 Climbing Boston Center
Sat 12:50:56 PM 43.0203 -73.7350 192° South 469 540 32,000 100 Climbing Boston Center
Sat 12:51:56 PM 42.9117 -73.7611 190° South 463 533 32,000  Level Boston Center
Sat 12:52:56 PM 42.7842 -73.7953 191° South 458 527 32,000  Level Boston Center
Sat 12:53:56 PM 42.6550 -73.7953 180° South 459 528 32,000  Level Boston Center
Sat 12:54:56 PM 42.5156 -73.7725 173° South 458 527 32,000  Level Boston Center
Sat 12:55:56 PM 42.3886 -73.7528 173° South 463 533 32,000  Level Boston Center
Sat 12:56:56 PM 42.2575 -73.7361 175° South 463 533 32,000  Level Boston Center
Sat 12:57:56 PM 42.1217 -73.7583 187° South 475 547 32,000  Level Boston Center
Sat 12:58:56 PM 41.9939 -73.8228 201° Southwest 486 559 32,000  Level Boston Center
Sat 12:59:56 PM 41.8661 -73.8842 200° South 486 559 32,000  Level Boston Center
Sat 01:01:55 PM 41.6172 -74.0036 200° South 473 544 32,000  Level New York Center
Sat 01:02:56 PM 41.4967 -74.0644 201° Southwest 473 544 32,000  Level New York Center
Sat 01:03:53 PM 41.3681 -74.1244 199° South 478 550 32,000 -205 Level New York Center
Sat 01:04:53 PM 41.2392 -74.1869 200° South 484 557 31,600 -645 Descending New York Center
Sat 01:05:54 PM 41.1231 -74.2389 199° South 495 570 30,700 -942 Descending New York Center
Sat 01:06:54 PM 40.9964 -74.2983 200° South 495 570 29,700 -1,008 Descending New York Center
Sat 01:07:53 PM 40.8717 -74.3606 201° Southwest 485 558 28,700 -857 Descending New York Center
Sat 01:08:53 PM 40.7650 -74.4425 210° Southwest 472 543 28,000 -347 Descending New York Center
Sat 01:09:54 PM 40.6836 -74.5750 231° Southwest 457 526 28,000  Level New York Center
Sat 01:10:54 PM 40.6044 -74.7044 231° Southwest 457 526 28,000  Level New York Center
Sat 01:11:53 PM 40.5231 -74.8308 230° Southwest 457 526 28,000  Level New York Center
Sat 01:12:53 PM 40.4375 -74.9511 227° Southwest 462 532 28,000  Level New York Center
Sat 01:13:54 PM 40.3478 -75.0739 226° Southwest 467 537 28,000  Level New York Center
Sat 01:14:54 PM 40.2619 -75.1964 227° Southwest 467 537 28,000 -958 Level New York Center
Sat 01:15:53 PM 40.1758 -75.3186 227° Southwest 467 537 26,100 -2,150 Descending New York Center
Sat 01:16:54 PM 40.0900 -75.4350 226° Southwest 467 537 23,700 -2,016 Descending New York Center
Sat 01:17:55 PM 39.9994 -75.5617 227° Southwest 447 514 22,000 -843 Descending New York Center
Sat 01:18:55 PM 39.9219 -75.6756 228° Southwest 441 507 22,000  Level New York Center
Sat 01:19:55 PM 39.8500 -75.8003 233° Southwest 434 499 22,000 -356 Level New York Center
Sat 01:20:53 PM 39.7739 -75.9192 230° Southwest 434 499 21,300 -1,475 Descending New York Center
Sat 01:21:53 PM 39.7000 -76.0325 230° Southwest 429 494 19,100 -1,884 Descending New York Center
Sat 01:22:54 PM 39.6350 -76.1328 230° Southwest 419 482 17,500 -2,070 Descending New York Center
Sat 01:24:15 PM 39.5333 -76.3000 232° Southwest 380 437 14,200 -2,250 Descending Potomac TRACON
Sat 01:25:10 PM 39.4667 -76.3833 224° Southwest 365 420 12,400 -1,148 Descending Potomac TRACON
Sat 01:26:10 PM 39.4000 -76.4667 224° Southwest 350 403 12,000 -200 Descending Potomac TRACON
Sat 01:27:10 PM 39.3167 -76.5333 212° Southwest 349 402 12,000 -350 Level Potomac TRACON
Sat 01:28:10 PM 39.2333 -76.6000 212° Southwest 347 399 11,300 -1,000 Descending Potomac TRACON
Sat 01:29:10 PM 39.1667 -76.6667 218° Southwest 309 356 10,000 -645 Descending Potomac TRACON
Sat 01:30:11 PM 39.1000 -76.7500 224° Southwest 301 346 10,000 -198 Level Potomac TRACON
Sat 01:31:11 PM 39.0333 -76.8167 218° Southwest 299 344 9,600 -1,100 Descending Potomac TRACON
Sat 01:32:11 PM 38.9833 -76.8833 226° Southwest 290 334 7,800 -1,736 Descending Potomac TRACON
Sat 01:33:12 PM 38.9167 -76.9333 210° Southwest 280 322 6,100 -893 Descending Potomac TRACON
Sat 01:34:12 PM 38.8500 -76.9500 191° South 238 274 6,000 -300 Descending Potomac TRACON
Sat 01:35:12 PM 38.7833 -76.9500 180° South 227 261 5,500 -526 Descending Potomac TRACON
Sat 01:36:06 PM 38.7333 -76.9333 165° South 220 253 5,000 -835 Descending Potomac TRACON
Sat 01:37:07 PM 38.6667 -76.9667 201° Southwest 241 277 3,900 -1,289 Descending Potomac TRACON
Sat 01:38:07 PM 38.6667 -77.0333 270° West 230 265 2,400 -950 Descending Potomac TRACON
Sat 01:39:07 PM 38.7167 -77.0333 360° North 173 199 2,000 -400 Descending Potomac TRACON
Sat 01:40:07 PM 38.7667 -77.0333 360° North 173 199 1,600 -600 Descending Potomac TRACON
Sat 01:41:07 PM 38.8167 -77.0333 360° North 137 158 800 -800 Descending Potomac TRACON

Login

Don't have an account? Register now (free) for customized features, flight alerts, and more!